createdAt,value
2023-03-15T00:01:08.342Z,100651.19
2023-03-15T00:03:37.603Z,100647.91
2023-03-15T00:06:07.684Z,100651.03
2023-03-15T00:08:35.678Z,100655.81
2023-03-15T00:11:03.775Z,100667.56
2023-03-15T00:13:32.278Z,100672.75
2023-03-15T00:16:02.966Z,100682.44
2023-03-15T00:18:31.291Z,100677.63
2023-03-15T00:20:59.599Z,100682.97
2023-03-15T00:23:31.630Z,100682.34
2023-03-15T00:25:59.615Z,100673.09
2023-03-15T00:28:27.627Z,100680.41
2023-03-15T00:31:04.973Z,100682.03
2023-03-15T00:33:34.999Z,100687.75
2023-03-15T00:36:05.329Z,100692.00
2023-03-15T00:38:35.027Z,100697.66
2023-03-15T00:41:06.771Z,100697.97
2023-03-15T00:43:34.766Z,100704.88
2023-03-15T00:46:03.253Z,100719.25
2023-03-15T00:48:31.235Z,100718.06
2023-03-15T00:51:07.053Z,100731.19
2023-03-15T00:53:36.905Z,100733.06
2023-03-15T00:56:06.804Z,100742.25
2023-03-15T00:58:34.798Z,100745.75
2023-03-15T01:01:06.958Z,100746.56
2023-03-15T01:03:36.853Z,100751.56
2023-03-15T01:06:09.096Z,100756.53
2023-03-15T01:08:38.434Z,100753.81
2023-03-15T01:11:07.407Z,100758.47
2023-03-15T01:13:35.431Z,100758.50
2023-03-15T01:16:03.923Z,100761.38
2023-03-15T01:18:32.161Z,100766.72
2023-03-15T01:21:00.408Z,100764.28
2023-03-15T01:23:28.349Z,100775.97
2023-03-15T01:26:01.171Z,100780.53
2023-03-15T01:28:29.194Z,100783.13
2023-03-15T01:30:58.858Z,100795.34
2023-03-15T01:33:27.673Z,100794.03
2023-03-15T01:36:00.390Z,100810.47
2023-03-15T01:38:28.499Z,100810.63
2023-03-15T01:40:57.792Z,100811.91
2023-03-15T01:43:26.812Z,100815.09
2023-03-15T01:46:07.558Z,100824.69
2023-03-15T01:48:38.710Z,100824.38
2023-03-15T01:51:11.353Z,100830.88
2023-03-15T01:53:40.285Z,100830.38
2023-03-15T01:56:09.832Z,100831.66
2023-03-15T01:58:38.134Z,100832.59
2023-03-15T02:01:06.312Z,100837.22
2023-03-15T02:03:36.668Z,100839.69
2023-03-15T02:06:08.467Z,100840.56
2023-03-15T02:08:40.505Z,100847.19
2023-03-15T02:11:09.842Z,100840.91
2023-03-15T02:13:37.772Z,100840.25
2023-03-15T02:16:07.048Z,100850.09
2023-03-15T02:18:36.770Z,100852.22
2023-03-15T02:21:12.455Z,100861.75
2023-03-15T02:23:41.553Z,100859.94
2023-03-15T02:26:18.370Z,100860.03
2023-03-15T02:28:47.877Z,100862.63
2023-03-15T02:31:16.208Z,100870.72
2023-03-15T02:33:46.104Z,100862.84
2023-03-15T02:36:18.321Z,100870.06
2023-03-15T02:38:46.360Z,100876.84
2023-03-15T02:41:16.493Z,100880.91
2023-03-15T02:43:44.731Z,100893.47
2023-03-15T02:46:14.621Z,100888.28
2023-03-15T02:48:42.820Z,100887.09
2023-03-15T02:51:18.425Z,100890.44
2023-03-15T02:53:46.479Z,100892.00
2023-03-15T02:56:15.177Z,100897.78
2023-03-15T02:58:45.815Z,100900.50
2023-03-15T03:01:15.299Z,100907.66
2023-03-15T03:03:43.745Z,100915.84
2023-03-15T03:06:13.074Z,100930.88
2023-03-15T03:08:41.033Z,100928.88
2023-03-15T03:11:08.976Z,100935.09
2023-03-15T03:13:36.889Z,100929.22
2023-03-15T03:16:04.854Z,100934.66
2023-03-15T03:18:35.886Z,100938.16
2023-03-15T03:21:04.894Z,100948.94
2023-03-15T03:23:33.947Z,100957.88
2023-03-15T03:26:03.143Z,100962.38
2023-03-15T03:28:33.247Z,100977.41
2023-03-15T03:31:01.285Z,100980.72
2023-03-15T03:33:29.228Z,100985.06
2023-03-15T03:36:04.098Z,100991.78
2023-03-15T03:38:32.082Z,101000.56
2023-03-15T03:40:59.955Z,100993.66
2023-03-15T03:43:27.861Z,101004.91
2023-03-15T03:45:55.811Z,101005.03
2023-03-15T03:48:23.744Z,101015.28
2023-03-15T03:50:51.693Z,101026.47
2023-03-15T03:53:21.001Z,101029.72
2023-03-15T03:55:48.955Z,101038.94
2023-03-15T03:58:16.906Z,101037.09
2023-03-15T04:00:44.807Z,101041.34
2023-03-15T04:03:12.848Z,101046.91
2023-03-15T04:05:41.990Z,101059.16
2023-03-15T04:08:09.962Z,101068.75
2023-03-15T04:10:39.258Z,101071.09
2023-03-15T04:13:07.208Z,101071.09
2023-03-15T04:15:35.127Z,101065.53
2023-03-15T04:18:05.807Z,101068.47
2023-03-15T04:20:34.674Z,101077.78
2023-03-15T04:23:02.798Z,101083.28
2023-03-15T04:25:31.127Z,101075.81
2023-03-15T04:28:02.876Z,101081.47
2023-03-15T04:30:31.015Z,101095.16
2023-03-15T04:32:59.996Z,101098.50
2023-03-15T04:35:28.035Z,101101.81
2023-03-15T04:37:57.019Z,101109.03
2023-03-15T04:40:29.860Z,101100.69
2023-03-15T04:42:57.760Z,101100.81
2023-03-15T04:45:28.444Z,101116.44
2023-03-15T04:47:56.785Z,101109.09
2023-03-15T04:50:25.557Z,101116.53
2023-03-15T04:52:53.508Z,101122.28
2023-03-15T04:55:21.448Z,101123.56
2023-03-15T04:57:49.391Z,101124.50
2023-03-15T05:00:18.035Z,101139.78
2023-03-15T05:02:54.577Z,101146.59
2023-03-15T05:05:23.534Z,101149.50
2023-03-15T05:07:51.778Z,101150.63
2023-03-15T05:10:19.932Z,101156.84
2023-03-15T05:12:47.902Z,101163.19
2023-03-15T05:15:15.862Z,101175.72
2023-03-15T05:17:46.514Z,101186.25
2023-03-15T05:20:16.729Z,101187.97
2023-03-15T05:22:45.449Z,101196.94
2023-03-15T05:25:13.935Z,101195.97
2023-03-15T05:27:41.901Z,101202.75
2023-03-15T05:30:11.321Z,101197.09
2023-03-15T05:32:39.758Z,101202.06
2023-03-15T05:35:09.944Z,101208.53
2023-03-15T05:37:39.407Z,101212.88
2023-03-15T05:40:09.343Z,101205.63
2023-03-15T05:42:37.287Z,101209.84
2023-03-15T05:45:05.873Z,101210.28
2023-03-15T05:47:34.185Z,101221.19
2023-03-15T05:50:02.136Z,101218.16
2023-03-15T05:52:30.049Z,101217.38
2023-03-15T05:54:59.351Z,101224.84
2023-03-15T05:57:27.265Z,101228.94
2023-03-15T05:59:55.226Z,101237.13
2023-03-15T06:02:23.829Z,101240.53
2023-03-15T06:04:51.753Z,101253.56
2023-03-15T06:07:21.254Z,101253.75
2023-03-15T06:09:49.151Z,101249.84
2023-03-15T06:12:18.491Z,101254.63
2023-03-15T06:14:46.471Z,101263.66
2023-03-15T06:17:14.369Z,101266.69
2023-03-15T06:19:42.379Z,101265.78
2023-03-15T06:22:10.471Z,101270.91
2023-03-15T06:24:38.389Z,101279.69
2023-03-15T06:27:06.452Z,101288.50
2023-03-15T06:29:35.818Z,101286.75
2023-03-15T06:32:03.927Z,101297.03
2023-03-15T06:34:31.919Z,101312.88
2023-03-15T06:36:59.867Z,101307.72
2023-03-15T06:39:27.808Z,101309.09
2023-03-15T06:41:58.487Z,101310.63
2023-03-15T06:44:26.523Z,101315.16
2023-03-15T06:46:55.938Z,101324.72
2023-03-15T06:49:23.903Z,101327.16
2023-03-15T06:51:51.851Z,101333.03
2023-03-15T06:54:19.756Z,101336.63
2023-03-15T06:56:47.647Z,101353.28
2023-03-15T06:59:15.571Z,101375.91
2023-03-15T07:01:43.580Z,101384.94
2023-03-15T07:04:12.911Z,101389.00
2023-03-15T07:06:40.965Z,101395.75
2023-03-15T07:09:09.145Z,101393.75
2023-03-15T07:11:37.455Z,101397.88
2023-03-15T07:14:05.903Z,101398.97
2023-03-15T07:16:33.888Z,101392.38
2023-03-15T07:19:02.522Z,101380.41
2023-03-15T07:21:32.536Z,101388.09
2023-03-15T07:24:00.624Z,101398.69
2023-03-15T07:26:28.530Z,101405.03
2023-03-15T07:28:56.452Z,101403.31
2023-03-15T07:31:24.443Z,101410.56
2023-03-15T07:33:52.796Z,101405.53
2023-03-15T07:36:22.568Z,101403.91
2023-03-15T07:38:51.913Z,101403.91
2023-03-15T07:41:19.825Z,101414.97
2023-03-15T07:43:47.729Z,101422.41
2023-03-15T07:46:15.753Z,101426.38
2023-03-15T07:48:43.723Z,101425.66
2023-03-15T07:51:11.963Z,101432.59
2023-03-15T07:53:39.984Z,101445.28
2023-03-15T07:56:09.577Z,101442.88
2023-03-15T07:58:37.943Z,101454.00
2023-03-15T08:01:06.298Z,101472.25
2023-03-15T08:03:34.222Z,101473.63
2023-03-15T08:06:02.448Z,101472.63
2023-03-15T08:08:30.391Z,101468.19
2023-03-15T08:10:59.406Z,101463.16
2023-03-15T08:13:28.721Z,101470.38
2023-03-15T08:15:56.947Z,101466.75
2023-03-15T08:18:24.946Z,101469.75
2023-03-15T08:20:53.095Z,101453.78
2023-03-15T08:23:22.005Z,101459.13
2023-03-15T08:25:50.249Z,101455.22
2023-03-15T08:28:18.180Z,101457.59
2023-03-15T08:30:47.590Z,101461.72
2023-03-15T08:33:15.790Z,101472.41
2023-03-15T08:35:43.888Z,101475.00
2023-03-15T08:38:11.974Z,101481.44
2023-03-15T08:40:40.840Z,101483.56
2023-03-15T08:43:09.465Z,101485.66
2023-03-15T08:45:56.773Z,101489.03
2023-03-15T08:48:26.442Z,101494.44
2023-03-15T08:50:54.467Z,101490.78
2023-03-15T08:53:22.360Z,101497.06
2023-03-15T08:55:50.620Z,101511.06
2023-03-15T08:58:18.569Z,101498.75
2023-03-15T09:00:47.918Z,101493.16
2023-03-15T09:03:16.812Z,101487.63
2023-03-15T09:05:46.887Z,101475.16
2023-03-15T09:08:17.005Z,101473.84
2023-03-15T09:10:45.122Z,101476.97
2023-03-15T09:13:13.056Z,101476.16
2023-03-15T09:15:40.978Z,101469.75
2023-03-15T09:18:08.892Z,101475.28
2023-03-15T09:20:36.874Z,101472.06
2023-03-15T09:23:06.191Z,101473.69
2023-03-15T09:25:34.097Z,101466.03
2023-03-15T09:28:02.046Z,101456.56
2023-03-15T09:30:30.083Z,101450.34
2023-03-15T09:32:58.177Z,101446.78
2023-03-15T09:35:26.213Z,101443.47
2023-03-15T09:37:54.128Z,101438.38
2023-03-15T09:40:26.098Z,101442.13
2023-03-15T09:43:03.429Z,101448.41
2023-03-15T09:45:41.808Z,101440.94
2023-03-15T09:48:11.540Z,101452.69
2023-03-15T09:50:43.311Z,101434.69
2023-03-15T09:53:14.287Z,101436.22
2023-03-15T09:55:43.904Z,101435.84
2023-03-15T09:58:13.683Z,101432.09
2023-03-15T10:00:45.313Z,101443.09
2023-03-15T10:03:18.158Z,101438.97
2023-03-15T10:05:47.953Z,101439.38
2023-03-15T10:08:18.090Z,101432.19
2023-03-15T10:10:51.876Z,101427.44
2023-03-15T10:13:43.532Z,101435.34
2023-03-15T10:16:21.774Z,101431.41
2023-03-15T10:19:02.909Z,101415.25
2023-03-15T10:21:39.203Z,101412.06
2023-03-15T10:24:16.413Z,101400.94
2023-03-15T10:29:17.033Z,101392.81
2023-03-15T10:31:47.701Z,101383.16
2023-03-15T10:34:16.915Z,101385.50
2023-03-15T10:36:50.314Z,101373.75
2023-03-15T10:39:19.371Z,101379.91
2023-03-15T10:41:50.738Z,101374.03
2023-03-15T10:44:20.726Z,101377.84
2023-03-15T10:47:07.203Z,101370.34
2023-03-15T10:49:41.920Z,101379.97
2023-03-15T10:52:28.457Z,101376.25
2023-03-15T10:55:02.475Z,101363.50
2023-03-15T10:57:36.280Z,101362.75
2023-03-15T11:00:09.478Z,101367.34
2023-03-15T11:02:37.573Z,101372.00
2023-03-15T11:05:17.232Z,101363.69
2023-03-15T11:07:55.861Z,101368.66
2023-03-15T11:10:25.320Z,101368.78
2023-03-15T11:13:10.490Z,101375.91
2023-03-15T11:15:39.000Z,101381.28
2023-03-15T11:18:09.100Z,101383.88
2023-03-15T11:20:40.930Z,101370.94
2023-03-15T11:23:16.043Z,101381.03
2023-03-15T11:25:43.996Z,101394.81
2023-03-15T11:28:18.680Z,101372.59
2023-03-15T11:30:48.605Z,101380.66
2023-03-15T11:33:28.516Z,101394.53
2023-03-15T11:35:57.660Z,101400.09
2023-03-15T11:38:30.266Z,101396.13
2023-03-15T11:40:58.699Z,101409.28
2023-03-15T11:43:32.591Z,101398.09
2023-03-15T11:46:02.333Z,101397.06
2023-03-15T11:48:32.647Z,101400.81
2023-03-15T11:51:01.127Z,101409.56
2023-03-15T11:53:33.197Z,101408.69
2023-03-15T11:56:21.876Z,101421.91
2023-03-15T11:59:07.047Z,101426.88
2023-03-15T12:01:36.287Z,101437.34
2023-03-15T12:04:49.916Z,101461.91
2023-03-15T12:07:40.019Z,101453.63
2023-03-15T12:10:25.880Z,101446.94
2023-03-15T12:12:59.313Z,101443.25
2023-03-15T12:15:48.736Z,101453.72
2023-03-15T12:18:34.627Z,101461.13
2023-03-15T12:21:14.494Z,101463.38
2023-03-15T12:23:48.590Z,101465.88
2023-03-15T12:26:28.044Z,101452.28
2023-03-15T12:29:07.223Z,101439.63
2023-03-15T12:31:53.645Z,101434.44
2023-03-15T12:34:28.730Z,101437.94
2023-03-15T12:36:59.118Z,101426.38
2023-03-15T12:39:39.879Z,101426.28
2023-03-15T12:42:23.026Z,101428.91
2023-03-15T12:44:51.011Z,101424.16
2023-03-15T12:47:20.337Z,101419.44
2023-03-15T12:49:48.332Z,101416.13
2023-03-15T12:52:41.731Z,101413.19
2023-03-15T12:55:16.936Z,101404.81
2023-03-15T12:57:49.501Z,101406.50
2023-03-15T13:00:19.316Z,101409.03
2023-03-15T13:02:52.089Z,101410.22
2023-03-15T13:05:24.859Z,101406.09
2023-03-15T13:07:58.199Z,101412.31
2023-03-15T13:10:40.712Z,101402.69
2023-03-15T13:13:28.923Z,101416.13
2023-03-15T13:16:15.618Z,101404.28
2023-03-15T13:18:49.849Z,101419.44
2023-03-15T13:21:21.577Z,101407.56
2023-03-15T13:23:52.166Z,101406.22
2023-03-15T13:26:43.925Z,101405.84
2023-03-15T13:29:17.511Z,101409.78
2023-03-15T13:31:46.443Z,101412.16
2023-03-15T13:34:17.976Z,101408.59
2023-03-15T13:36:47.534Z,101410.22
2023-03-15T13:39:23.274Z,101405.63
2023-03-15T13:41:51.779Z,101406.66
2023-03-15T13:44:22.226Z,101398.22
2023-03-15T13:46:52.521Z,101410.06
2023-03-15T13:49:22.715Z,101411.16
2023-03-15T13:51:51.951Z,101409.16
2023-03-15T13:54:22.302Z,101402.34
2023-03-15T13:56:58.145Z,101396.19
2023-03-15T13:59:30.281Z,101403.59
2023-03-15T14:01:58.958Z,101409.97
2023-03-15T14:04:29.236Z,101414.34
2023-03-15T14:07:22.122Z,101413.38
2023-03-15T14:09:50.021Z,101437.19
2023-03-15T14:12:22.852Z,101434.47
2023-03-15T14:14:52.307Z,101439.19
2023-03-15T14:17:23.937Z,101448.25
2023-03-15T14:19:56.734Z,101446.78
2023-03-15T14:22:24.770Z,101441.88
2023-03-15T14:24:54.040Z,101439.31
2023-03-15T14:27:23.458Z,101438.69
2023-03-15T14:29:53.564Z,101445.81
2023-03-15T14:32:29.151Z,101451.03
2023-03-15T14:35:03.701Z,101453.22
2023-03-15T14:37:37.148Z,101454.56
2023-03-15T14:40:24.001Z,101455.38
2023-03-15T14:42:52.622Z,101457.09
2023-03-15T14:45:22.246Z,101455.91
2023-03-15T14:47:58.807Z,101454.22
2023-03-15T14:50:30.882Z,101453.75
2023-03-15T14:52:59.788Z,101451.22
2023-03-15T14:55:30.977Z,101455.50
2023-03-15T14:57:58.954Z,101460.56
2023-03-15T15:00:27.245Z,101457.75
2023-03-15T15:02:56.919Z,101469.69
2023-03-15T15:05:26.547Z,101466.50
2023-03-15T15:08:01.449Z,101473.19
2023-03-15T15:10:29.776Z,101473.66
2023-03-15T15:13:05.928Z,101480.81
2023-03-15T15:15:47.417Z,101481.44
2023-03-15T15:18:22.085Z,101483.44
2023-03-15T15:20:51.550Z,101485.06
2023-03-15T15:23:22.527Z,101485.66
2023-03-15T15:25:52.082Z,101484.50
2023-03-15T15:28:33.154Z,101488.19
2023-03-15T15:31:02.409Z,101489.19
2023-03-15T15:33:30.391Z,101490.81
2023-03-15T15:35:58.937Z,101495.41
2023-03-15T15:38:33.072Z,101498.66
2023-03-15T15:41:01.144Z,101491.56
2023-03-15T15:43:30.026Z,101501.66
2023-03-15T15:45:58.839Z,101497.59
2023-03-15T15:48:26.812Z,101515.13
2023-03-15T15:51:06.974Z,101505.41
2023-03-15T15:53:36.365Z,101510.22
2023-03-15T15:56:04.335Z,101504.53
2023-03-15T15:58:32.264Z,101505.28
2023-03-15T16:01:00.214Z,101505.03
2023-03-15T16:03:28.363Z,101510.31
2023-03-15T16:05:56.276Z,101511.06
2023-03-15T16:08:25.943Z,101519.38
2023-03-15T16:10:55.257Z,101517.34
2023-03-15T16:13:23.454Z,101517.66
2023-03-15T16:15:51.454Z,101528.81
2023-03-15T16:18:19.486Z,101533.94
2023-03-15T16:20:48.744Z,101523.84
2023-03-15T16:23:20.964Z,101537.38
2023-03-15T16:25:50.690Z,101533.41
2023-03-15T16:28:20.260Z,101539.28
2023-03-15T16:30:48.234Z,101546.22
2023-03-15T16:33:17.521Z,101555.16
2023-03-15T16:35:45.928Z,101547.47
2023-03-15T16:38:16.417Z,101541.75
2023-03-15T16:40:46.056Z,101556.31
2023-03-15T16:43:14.656Z,101552.81
2023-03-15T16:45:43.927Z,101563.31
2023-03-15T16:48:12.968Z,101553.44
2023-03-15T16:50:41.269Z,101562.81
2023-03-15T16:53:11.224Z,101570.53
2023-03-15T16:55:39.684Z,101570.34
2023-03-15T16:58:38.596Z,101575.50
2023-03-15T17:01:09.785Z,101565.41
2023-03-15T17:03:37.753Z,101580.28
2023-03-15T17:06:05.980Z,101579.56
2023-03-15T17:08:34.084Z,101587.53
2023-03-15T17:11:02.027Z,101591.66
2023-03-15T17:13:31.905Z,101591.50
2023-03-15T17:16:00.259Z,101592.53
2023-03-15T17:18:30.780Z,101590.38
2023-03-15T17:20:59.159Z,101603.03
2023-03-15T17:23:27.045Z,101598.69
2023-03-15T17:25:54.961Z,101603.53
2023-03-15T17:28:23.024Z,101602.19
2023-03-15T17:30:55.220Z,101609.25
2023-03-15T17:33:27.440Z,101612.94
2023-03-15T17:35:58.126Z,101614.28
2023-03-15T17:38:30.816Z,101610.75
2023-03-15T17:40:58.816Z,101610.28
2023-03-15T17:43:26.779Z,101616.41
2023-03-15T17:45:54.735Z,101621.13
2023-03-15T17:48:22.640Z,101619.78
2023-03-15T17:50:50.667Z,101622.53
2023-03-15T17:53:21.252Z,101624.88
2023-03-15T17:55:49.446Z,101630.94
2023-03-15T17:58:20.218Z,101631.34
2023-03-15T18:00:49.069Z,101634.69
2023-03-15T18:03:17.570Z,101647.38
2023-03-15T18:05:46.242Z,101640.22
2023-03-15T18:08:16.929Z,101644.38
2023-03-15T18:10:47.244Z,101647.75
2023-03-15T18:13:17.647Z,101654.13
2023-03-15T18:15:45.989Z,101655.38
2023-03-15T18:18:13.903Z,101655.75
2023-03-15T18:20:42.229Z,101659.41
2023-03-15T18:23:13.059Z,101662.22
2023-03-15T18:25:41.176Z,101669.69
2023-03-15T18:28:10.873Z,101666.09
2023-03-15T18:30:38.846Z,101668.28
2023-03-15T18:33:06.971Z,101673.06
2023-03-15T18:35:36.677Z,101674.88
2023-03-15T18:38:05.517Z,101674.00
2023-03-15T18:40:36.843Z,101672.84
2023-03-15T18:43:05.633Z,101691.94
2023-03-15T18:45:36.663Z,101689.13
2023-03-15T18:48:05.077Z,101690.47
2023-03-15T18:50:33.575Z,101697.59
2023-03-15T18:53:01.793Z,101700.06
2023-03-15T18:55:29.755Z,101696.78
2023-03-15T18:57:57.665Z,101694.13
2023-03-15T19:00:28.302Z,101692.81
2023-03-15T19:02:59.499Z,101695.91
2023-03-15T19:05:28.025Z,101690.69
2023-03-15T19:07:55.904Z,101691.81
2023-03-15T19:10:25.045Z,101704.75
2023-03-15T19:12:53.289Z,101704.00
2023-03-15T19:15:22.924Z,101712.81
2023-03-15T19:17:52.703Z,101710.34
2023-03-15T19:20:22.836Z,101711.78
2023-03-15T19:22:51.302Z,101709.44
2023-03-15T19:25:19.642Z,101708.56
2023-03-15T19:27:47.759Z,101716.59
2023-03-15T19:30:20.765Z,101714.44
2023-03-15T19:32:50.290Z,101719.06
2023-03-15T19:35:19.383Z,101718.50
2023-03-15T19:37:49.365Z,101714.91
2023-03-15T19:40:18.706Z,101725.28
2023-03-15T19:42:46.792Z,101721.69
2023-03-15T19:45:18.435Z,101722.47
2023-03-15T19:47:47.073Z,101731.00
2023-03-15T19:50:15.767Z,101734.84
2023-03-15T19:52:46.924Z,101732.88
2023-03-15T19:55:17.599Z,101732.38
2023-03-15T19:57:45.629Z,101744.38
2023-03-15T20:00:15.990Z,101741.06
2023-03-15T20:02:44.015Z,101752.34
2023-03-15T20:05:13.412Z,101748.13
2023-03-15T20:07:42.477Z,101755.53
2023-03-15T20:10:11.926Z,101760.06
2023-03-15T20:12:42.741Z,101759.50
2023-03-15T20:15:12.226Z,101761.56
2023-03-15T20:17:41.021Z,101769.94
2023-03-15T20:20:13.153Z,101771.56
2023-03-15T20:22:42.150Z,101770.44
2023-03-15T20:25:10.930Z,101771.22
2023-03-15T20:27:39.028Z,101778.31
2023-03-15T20:30:10.400Z,101774.50
2023-03-15T20:32:38.372Z,101775.06
2023-03-15T20:35:09.252Z,101770.72
2023-03-15T20:37:40.290Z,101776.56
2023-03-15T20:40:10.835Z,101780.16
2023-03-15T20:42:38.845Z,101774.78
2023-03-15T20:45:10.045Z,101786.03
2023-03-15T20:47:38.841Z,101787.03
2023-03-15T20:50:07.195Z,101788.88
2023-03-15T20:52:35.187Z,101789.88
2023-03-15T20:55:03.644Z,101795.47
2023-03-15T20:57:31.591Z,101796.34
2023-03-15T20:59:59.986Z,101792.47
2023-03-15T21:02:29.275Z,101798.28
2023-03-15T21:04:57.178Z,101801.28
2023-03-15T21:07:25.123Z,101801.47
2023-03-15T21:09:53.017Z,101797.00
2023-03-15T21:12:21.369Z,101799.56
2023-03-15T21:14:49.272Z,101797.81
2023-03-15T21:17:17.210Z,101804.34
2023-03-15T21:19:46.521Z,101800.28
2023-03-15T21:22:14.503Z,101796.16
2023-03-15T21:24:54.775Z,101790.59
2023-03-15T21:27:26.247Z,101788.44
2023-03-15T21:29:54.597Z,101789.91
2023-03-15T21:32:22.676Z,101796.56
2023-03-15T21:34:52.554Z,101792.78
2023-03-15T21:37:20.684Z,101794.66
2023-03-15T21:39:48.561Z,101798.44
2023-03-15T21:42:16.563Z,101802.66
2023-03-15T21:44:44.477Z,101798.44
2023-03-15T21:47:14.128Z,101803.16
2023-03-15T21:49:44.765Z,101807.53
2023-03-15T21:52:16.252Z,101805.84
2023-03-15T21:54:44.954Z,101802.78
2023-03-15T21:57:13.729Z,101808.53
2023-03-15T21:59:41.674Z,101807.22
2023-03-15T22:02:14.228Z,101812.81
2023-03-15T22:04:42.814Z,101813.13
2023-03-15T22:07:11.785Z,101810.91
2023-03-15T22:09:41.903Z,101818.22
2023-03-15T22:12:10.511Z,101820.81
2023-03-15T22:14:38.499Z,101818.50
2023-03-15T22:17:06.559Z,101828.03
2023-03-15T22:19:34.687Z,101820.59
2023-03-15T22:22:02.631Z,101825.09
2023-03-15T22:24:34.063Z,101821.31
2023-03-15T22:27:03.636Z,101821.81
2023-03-15T22:29:31.536Z,101820.16
2023-03-15T22:31:59.473Z,101826.97
2023-03-15T22:34:27.620Z,101824.53
2023-03-15T22:36:55.589Z,101818.97
2023-03-15T22:39:23.487Z,101812.63
2023-03-15T22:41:51.408Z,101819.41
2023-03-15T22:44:20.778Z,101816.63
2023-03-15T22:46:48.801Z,101817.06
2023-03-15T22:49:17.552Z,101815.78
2023-03-15T22:51:45.477Z,101813.97
2023-03-15T22:54:13.429Z,101821.00
2023-03-15T22:56:41.334Z,101818.81
2023-03-15T22:59:09.254Z,101822.22
2023-03-15T23:01:38.585Z,101832.47
2023-03-15T23:04:06.614Z,101828.81
2023-03-15T23:06:34.530Z,101823.41
2023-03-15T23:09:03.936Z,101829.59
2023-03-15T23:11:33.464Z,101833.69
2023-03-15T23:14:01.404Z,101838.28
2023-03-15T23:16:29.360Z,101839.47
2023-03-15T23:18:58.740Z,101842.13
2023-03-15T23:21:27.167Z,101840.00
2023-03-15T23:23:55.074Z,101844.38
2023-03-15T23:26:25.535Z,101845.47
2023-03-15T23:28:53.781Z,101849.78
2023-03-15T23:31:22.376Z,101853.34
2023-03-15T23:33:50.289Z,101860.59
2023-03-15T23:36:19.559Z,101859.44
2023-03-15T23:38:47.477Z,101863.47
2023-03-15T23:41:15.389Z,101868.59
2023-03-15T23:43:43.443Z,101867.16
2023-03-15T23:46:14.489Z,101872.53
2023-03-15T23:48:42.601Z,101867.69
2023-03-15T23:51:12.634Z,101877.19
2023-03-15T23:53:41.980Z,101875.41
2023-03-15T23:56:10.021Z,101881.44
2023-03-15T23:58:38.728Z,101890.53
